sensor_id;sensor_type;location;lat;lon;timestamp;P1;durP1;ratioP1;P2;durP2;ratioP2
19414;SDS011;9843;48.882;12.592;2022-08-25T00:00:43;12.93;;;11.63;;
19414;SDS011;9843;48.882;12.592;2022-08-25T00:03:10;14.23;;;12.83;;
19414;SDS011;9843;48.882;12.592;2022-08-25T00:05:39;13.63;;;11.67;;
19414;SDS011;9843;48.882;12.592;2022-08-25T00:08:06;13.53;;;11.63;;
19414;SDS011;9843;48.882;12.592;2022-08-25T00:10:33;12.67;;;10.83;;
19414;SDS011;9843;48.882;12.592;2022-08-25T00:13:02;12.83;;;11.53;;
19414;SDS011;9843;48.882;12.592;2022-08-25T00:15:29;11.73;;;10.63;;
19414;SDS011;9843;48.882;12.592;2022-08-25T00:17:56;13.17;;;11.53;;
19414;SDS011;9843;48.882;12.592;2022-08-25T00:20:24;12.87;;;11.57;;
19414;SDS011;9843;48.882;12.592;2022-08-25T00:22:54;12.00;;;10.80;;
19414;SDS011;9843;48.882;12.592;2022-08-25T00:25:21;13.13;;;11.73;;
19414;SDS011;9843;48.882;12.592;2022-08-25T00:27:49;12.20;;;11.00;;
19414;SDS011;9843;48.882;12.592;2022-08-25T00:30:16;12.53;;;11.33;;
19414;SDS011;9843;48.882;12.592;2022-08-25T00:32:43;13.77;;;12.43;;
19414;SDS011;9843;48.882;12.592;2022-08-25T00:35:10;13.20;;;11.83;;
19414;SDS011;9843;48.882;12.592;2022-08-25T00:37:37;13.23;;;11.83;;
19414;SDS011;9843;48.882;12.592;2022-08-25T00:40:06;17.37;;;12.43;;
19414;SDS011;9843;48.882;12.592;2022-08-25T00:42:34;12.90;;;11.40;;
19414;SDS011;9843;48.882;12.592;2022-08-25T00:45:02;14.40;;;12.40;;
19414;SDS011;9843;48.882;12.592;2022-08-25T00:47:30;13.00;;;11.83;;
19414;SDS011;9843;48.882;12.592;2022-08-25T00:49:58;12.20;;;11.00;;
19414;SDS011;9843;48.882;12.592;2022-08-25T00:52:27;12.57;;;11.27;;
19414;SDS011;9843;48.882;12.592;2022-08-25T00:54:58;13.20;;;11.57;;
19414;SDS011;9843;48.882;12.592;2022-08-25T00:57:31;14.23;;;12.20;;
19414;SDS011;9843;48.882;12.592;2022-08-25T01:00:03;13.10;;;11.80;;
19414;SDS011;9843;48.882;12.592;2022-08-25T01:02:32;13.87;;;12.10;;
19414;SDS011;9843;48.882;12.592;2022-08-25T01:04:59;13.97;;;12.00;;
19414;SDS011;9843;48.882;12.592;2022-08-25T01:07:25;12.77;;;11.47;;
19414;SDS011;9843;48.882;12.592;2022-08-25T01:09:52;14.10;;;10.70;;
19414;SDS011;9843;48.882;12.592;2022-08-25T01:12:19;18.07;;;11.77;;
19414;SDS011;9843;48.882;12.592;2022-08-25T01:14:48;13.03;;;11.67;;
19414;SDS011;9843;48.882;12.592;2022-08-25T01:17:17;14.00;;;12.20;;
19414;SDS011;9843;48.882;12.592;2022-08-25T01:19:44;11.77;;;10.63;;
19414;SDS011;9843;48.882;12.592;2022-08-25T01:22:12;17.50;;;13.17;;
19414;SDS011;9843;48.882;12.592;2022-08-25T01:24:41;11.73;;;10.57;;
19414;SDS011;9843;48.882;12.592;2022-08-25T01:27:13;15.27;;;10.97;;
19414;SDS011;9843;48.882;12.592;2022-08-25T01:29:39;14.20;;;12.70;;
19414;SDS011;9843;48.882;12.592;2022-08-25T01:32:07;12.53;;;11.33;;
19414;SDS011;9843;48.882;12.592;2022-08-25T01:34:38;14.03;;;12.00;;
19414;SDS011;9843;48.882;12.592;2022-08-25T01:37:08;12.53;;;11.20;;
19414;SDS011;9843;48.882;12.592;2022-08-25T01:39:37;13.40;;;10.63;;
19414;SDS011;9843;48.882;12.592;2022-08-25T01:42:18;11.70;;;10.50;;
19414;SDS011;9843;48.882;12.592;2022-08-25T01:44:53;13.83;;;10.00;;
19414;SDS011;9843;48.882;12.592;2022-08-25T01:47:20;13.93;;;10.47;;
19414;SDS011;9843;48.882;12.592;2022-08-25T01:49:48;11.43;;;10.30;;
19414;SDS011;9843;48.882;12.592;2022-08-25T01:52:15;13.10;;;11.53;;
19414;SDS011;9843;48.882;12.592;2022-08-25T01:54:49;14.07;;;11.97;;
19414;SDS011;9843;48.882;12.592;2022-08-25T01:57:16;12.70;;;11.27;;
19414;SDS011;9843;48.882;12.592;2022-08-25T01:59:43;18.37;;;11.77;;
19414;SDS011;9843;48.882;12.592;2022-08-25T02:02:11;15.03;;;12.87;;
19414;SDS011;9843;48.882;12.592;2022-08-25T02:04:38;13.17;;;11.87;;
19414;SDS011;9843;48.882;12.592;2022-08-25T02:07:05;14.37;;;12.83;;
19414;SDS011;9843;48.882;12.592;2022-08-25T02:09:33;15.73;;;12.17;;
19414;SDS011;9843;48.882;12.592;2022-08-25T02:12:03;12.83;;;11.47;;
19414;SDS011;9843;48.882;12.592;2022-08-25T02:14:30;14.50;;;11.73;;
19414;SDS011;9843;48.882;12.592;2022-08-25T02:16:57;14.63;;;12.17;;
19414;SDS011;9843;48.882;12.592;2022-08-25T02:19:23;17.80;;;12.93;;
19414;SDS011;9843;48.882;12.592;2022-08-25T02:21:50;14.63;;;13.10;;
19414;SDS011;9843;48.882;12.592;2022-08-25T02:24:17;12.50;;;10.40;;
19414;SDS011;9843;48.882;12.592;2022-08-25T02:26:44;12.80;;;11.27;;
19414;SDS011;9843;48.882;12.592;2022-08-25T02:29:13;14.53;;;11.90;;
19414;SDS011;9843;48.882;12.592;2022-08-25T02:31:40;13.53;;;11.93;;
19414;SDS011;9843;48.882;12.592;2022-08-25T02:34:08;13.57;;;12.17;;
19414;SDS011;9843;48.882;12.592;2022-08-25T02:36:35;13.10;;;11.70;;
19414;SDS011;9843;48.882;12.592;2022-08-25T02:39:03;11.93;;;10.73;;
19414;SDS011;9843;48.882;12.592;2022-08-25T02:41:30;14.07;;;11.63;;
19414;SDS011;9843;48.882;12.592;2022-08-25T02:43:57;15.20;;;12.53;;
19414;SDS011;9843;48.882;12.592;2022-08-25T02:46:26;14.47;;;12.20;;
19414;SDS011;9843;48.882;12.592;2022-08-25T02:48:53;13.80;;;12.30;;
19414;SDS011;9843;48.882;12.592;2022-08-25T02:51:21;16.23;;;12.00;;
19414;SDS011;9843;48.882;12.592;2022-08-25T02:53:49;13.93;;;12.53;;
19414;SDS011;9843;48.882;12.592;2022-08-25T02:56:17;19.10;;;15.17;;
19414;SDS011;9843;48.882;12.592;2022-08-25T02:58:45;24.47;;;13.77;;
19414;SDS011;9843;48.882;12.592;2022-08-25T03:01:13;15.23;;;13.00;;
19414;SDS011;9843;48.882;12.592;2022-08-25T03:03:42;12.67;;;11.37;;
19414;SDS011;9843;48.882;12.592;2022-08-25T03:06:11;16.57;;;13.10;;
19414;SDS011;9843;48.882;12.592;2022-08-25T03:08:40;16.27;;;12.50;;
19414;SDS011;9843;48.882;12.592;2022-08-25T03:11:08;12.77;;;11.43;;
19414;SDS011;9843;48.882;12.592;2022-08-25T03:13:35;16.63;;;11.87;;
19414;SDS011;9843;48.882;12.592;2022-08-25T03:16:03;12.00;;;10.77;;
19414;SDS011;9843;48.882;12.592;2022-08-25T03:18:31;13.07;;;11.77;;
19414;SDS011;9843;48.882;12.592;2022-08-25T03:20:59;13.87;;;12.50;;
19414;SDS011;9843;48.882;12.592;2022-08-25T03:23:27;15.33;;;12.60;;
19414;SDS011;9843;48.882;12.592;2022-08-25T03:25:54;13.33;;;12.07;;
19414;SDS011;9843;48.882;12.592;2022-08-25T03:28:39;14.40;;;12.87;;
19414;SDS011;9843;48.882;12.592;2022-08-25T03:31:05;13.90;;;11.73;;
19414;SDS011;9843;48.882;12.592;2022-08-25T03:33:34;16.33;;;13.40;;
19414;SDS011;9843;48.882;12.592;2022-08-25T03:36:03;20.47;;;13.70;;
19414;SDS011;9843;48.882;12.592;2022-08-25T03:38:31;16.43;;;12.20;;
19414;SDS011;9843;48.882;12.592;2022-08-25T03:40:58;14.87;;;12.30;;
19414;SDS011;9843;48.882;12.592;2022-08-25T03:43:26;20.00;;;15.27;;
19414;SDS011;9843;48.882;12.592;2022-08-25T03:45:52;22.40;;;13.97;;
19414;SDS011;9843;48.882;12.592;2022-08-25T03:48:19;22.37;;;16.27;;
19414;SDS011;9843;48.882;12.592;2022-08-25T03:50:47;17.70;;;14.97;;
19414;SDS011;9843;48.882;12.592;2022-08-25T03:53:17;16.90;;;13.80;;
19414;SDS011;9843;48.882;12.592;2022-08-25T03:55:44;15.00;;;12.43;;
19414;SDS011;9843;48.882;12.592;2022-08-25T03:58:11;16.27;;;13.83;;
19414;SDS011;9843;48.882;12.592;2022-08-25T04:00:38;14.10;;;12.47;;
19414;SDS011;9843;48.882;12.592;2022-08-25T04:03:05;16.97;;;14.23;;
19414;SDS011;9843;48.882;12.592;2022-08-25T04:05:32;15.33;;;13.73;;
19414;SDS011;9843;48.882;12.592;2022-08-25T04:07:59;14.53;;;12.63;;
19414;SDS011;9843;48.882;12.592;2022-08-25T04:10:27;17.03;;;14.40;;
19414;SDS011;9843;48.882;12.592;2022-08-25T04:12:55;21.50;;;14.83;;
19414;SDS011;9843;48.882;12.592;2022-08-25T04:15:22;18.77;;;14.23;;
19414;SDS011;9843;48.882;12.592;2022-08-25T04:17:49;20.03;;;15.27;;
19414;SDS011;9843;48.882;12.592;2022-08-25T04:20:16;15.30;;;13.67;;
19414;SDS011;9843;48.882;12.592;2022-08-25T04:22:43;14.93;;;13.40;;
19414;SDS011;9843;48.882;12.592;2022-08-25T04:25:09;16.57;;;14.10;;
19414;SDS011;9843;48.882;12.592;2022-08-25T04:27:38;16.00;;;13.27;;
19414;SDS011;9843;48.882;12.592;2022-08-25T04:30:05;15.70;;;14.00;;
19414;SDS011;9843;48.882;12.592;2022-08-25T04:32:34;15.40;;;13.57;;
19414;SDS011;9843;48.882;12.592;2022-08-25T04:35:01;17.57;;;15.00;;
19414;SDS011;9843;48.882;12.592;2022-08-25T04:37:29;15.13;;;12.87;;
19414;SDS011;9843;48.882;12.592;2022-08-25T04:39:57;15.77;;;13.57;;
19414;SDS011;9843;48.882;12.592;2022-08-25T04:42:24;17.00;;;13.67;;
19414;SDS011;9843;48.882;12.592;2022-08-25T04:44:52;13.93;;;12.27;;
19414;SDS011;9843;48.882;12.592;2022-08-25T04:47:19;15.43;;;12.80;;
19414;SDS011;9843;48.882;12.592;2022-08-25T04:49:46;15.13;;;13.63;;
19414;SDS011;9843;48.882;12.592;2022-08-25T04:52:13;13.90;;;12.23;;
19414;SDS011;9843;48.882;12.592;2022-08-25T04:54:40;16.97;;;14.07;;
19414;SDS011;9843;48.882;12.592;2022-08-25T04:57:06;14.33;;;12.83;;
19414;SDS011;9843;48.882;12.592;2022-08-25T04:59:33;15.87;;;12.23;;
19414;SDS011;9843;48.882;12.592;2022-08-25T05:02:02;22.70;;;13.97;;
19414;SDS011;9843;48.882;12.592;2022-08-25T05:04:30;14.73;;;12.50;;
19414;SDS011;9843;48.882;12.592;2022-08-25T05:06:57;15.13;;;12.60;;
19414;SDS011;9843;48.882;12.592;2022-08-25T05:09:25;16.37;;;13.50;;
19414;SDS011;9843;48.882;12.592;2022-08-25T05:11:52;14.07;;;12.77;;
19414;SDS011;9843;48.882;12.592;2022-08-25T05:14:19;14.20;;;12.70;;
19414;SDS011;9843;48.882;12.592;2022-08-25T05:16:47;17.30;;;13.83;;
19414;SDS011;9843;48.882;12.592;2022-08-25T05:19:15;15.93;;;12.67;;
19414;SDS011;9843;48.882;12.592;2022-08-25T05:21:42;14.93;;;13.47;;
19414;SDS011;9843;48.882;12.592;2022-08-25T05:24:09;15.07;;;11.60;;
19414;SDS011;9843;48.882;12.592;2022-08-25T05:26:36;19.47;;;14.37;;
19414;SDS011;9843;48.882;12.592;2022-08-25T05:29:03;15.00;;;12.70;;
19414;SDS011;9843;48.882;12.592;2022-08-25T05:31:30;15.47;;;12.63;;
19414;SDS011;9843;48.882;12.592;2022-08-25T05:33:58;12.80;;;11.47;;
19414;SDS011;9843;48.882;12.592;2022-08-25T05:36:26;14.27;;;12.83;;
19414;SDS011;9843;48.882;12.592;2022-08-25T05:38:54;14.87;;;11.40;;
19414;SDS011;9843;48.882;12.592;2022-08-25T05:41:25;10.63;;;9.57;;
19414;SDS011;9843;48.882;12.592;2022-08-25T05:43:53;12.83;;;11.43;;
19414;SDS011;9843;48.882;12.592;2022-08-25T05:46:20;13.30;;;10.47;;
19414;SDS011;9843;48.882;12.592;2022-08-25T05:48:48;15.40;;;11.43;;
19414;SDS011;9843;48.882;12.592;2022-08-25T05:51:15;13.17;;;11.63;;
19414;SDS011;9843;48.882;12.592;2022-08-25T05:53:44;15.13;;;12.97;;
19414;SDS011;9843;48.882;12.592;2022-08-25T05:56:15;14.70;;;11.30;;
19414;SDS011;9843;48.882;12.592;2022-08-25T05:58:42;13.23;;;11.20;;
19414;SDS011;9843;48.882;12.592;2022-08-25T06:01:17;11.77;;;10.43;;
19414;SDS011;9843;48.882;12.592;2022-08-25T06:04:06;11.83;;;10.63;;
19414;SDS011;9843;48.882;12.592;2022-08-25T06:06:33;11.70;;;10.47;;
19414;SDS011;9843;48.882;12.592;2022-08-25T06:09:02;16.70;;;11.57;;
19414;SDS011;9843;48.882;12.592;2022-08-25T06:11:32;14.73;;;13.23;;
19414;SDS011;9843;48.882;12.592;2022-08-25T06:14:00;11.50;;;10.30;;
19414;SDS011;9843;48.882;12.592;2022-08-25T06:16:26;15.40;;;11.43;;
19414;SDS011;9843;48.882;12.592;2022-08-25T06:18:53;13.77;;;10.63;;
19414;SDS011;9843;48.882;12.592;2022-08-25T06:21:20;11.37;;;9.57;;
19414;SDS011;9843;48.882;12.592;2022-08-25T06:23:47;15.13;;;10.83;;
19414;SDS011;9843;48.882;12.592;2022-08-25T06:26:15;13.97;;;11.37;;
19414;SDS011;9843;48.882;12.592;2022-08-25T06:28:42;12.17;;;10.87;;
19414;SDS011;9843;48.882;12.592;2022-08-25T06:31:09;10.10;;;9.17;;
19414;SDS011;9843;48.882;12.592;2022-08-25T06:33:35;12.90;;;10.90;;
19414;SDS011;9843;48.882;12.592;2022-08-25T06:36:02;11.23;;;9.93;;
19414;SDS011;9843;48.882;12.592;2022-08-25T06:38:30;10.33;;;8.83;;
19414;SDS011;9843;48.882;12.592;2022-08-25T06:40:57;10.70;;;9.07;;
19414;SDS011;9843;48.882;12.592;2022-08-25T06:43:27;9.37;;;8.47;;
19414;SDS011;9843;48.882;12.592;2022-08-25T06:45:54;10.53;;;9.17;;
19414;SDS011;9843;48.882;12.592;2022-08-25T06:48:21;11.30;;;9.63;;
19414;SDS011;9843;48.882;12.592;2022-08-25T06:50:48;14.57;;;9.67;;
19414;SDS011;9843;48.882;12.592;2022-08-25T06:53:14;8.93;;;7.85;;
19414;SDS011;9843;48.882;12.592;2022-08-25T06:55:41;10.23;;;8.65;;
19414;SDS011;9843;48.882;12.592;2022-08-25T06:58:08;16.00;;;8.85;;
19414;SDS011;9843;48.882;12.592;2022-08-25T07:00:36;10.55;;;9.45;;
19414;SDS011;9843;48.882;12.592;2022-08-25T07:03:03;14.70;;;8.70;;
19414;SDS011;9843;48.882;12.592;2022-08-25T07:05:30;8.75;;;7.95;;
19414;SDS011;9843;48.882;12.592;2022-08-25T07:07:57;8.75;;;7.75;;
19414;SDS011;9843;48.882;12.592;2022-08-25T07:10:23;11.52;;;9.35;;
19414;SDS011;9843;48.882;12.592;2022-08-25T07:12:50;13.80;;;9.63;;
19414;SDS011;9843;48.882;12.592;2022-08-25T07:15:17;10.40;;;8.35;;
19414;SDS011;9843;48.882;12.592;2022-08-25T07:17:46;10.93;;;9.15;;
19414;SDS011;9843;48.882;12.592;2022-08-25T07:20:13;8.80;;;6.68;;
19414;SDS011;9843;48.882;12.592;2022-08-25T07:22:39;13.13;;;8.45;;
19414;SDS011;9843;48.882;12.592;2022-08-25T07:25:07;10.10;;;8.60;;
19414;SDS011;9843;48.882;12.592;2022-08-25T07:27:35;9.90;;;7.97;;
19414;SDS011;9843;48.882;12.592;2022-08-25T07:30:03;8.05;;;7.25;;
19414;SDS011;9843;48.882;12.592;2022-08-25T07:32:31;7.68;;;6.25;;
19414;SDS011;9843;48.882;12.592;2022-08-25T07:34:59;7.63;;;6.60;;
19414;SDS011;9843;48.882;12.592;2022-08-25T07:37:40;7.50;;;6.72;;
19414;SDS011;9843;48.882;12.592;2022-08-25T07:40:09;7.70;;;6.90;;
19414;SDS011;9843;48.882;12.592;2022-08-25T07:42:38;8.65;;;7.65;;
19414;SDS011;9843;48.882;12.592;2022-08-25T07:45:06;6.88;;;6.15;;
19414;SDS011;9843;48.882;12.592;2022-08-25T07:47:34;9.40;;;6.63;;
19414;SDS011;9843;48.882;12.592;2022-08-25T07:50:03;8.60;;;7.70;;
19414;SDS011;9843;48.882;12.592;2022-08-25T07:52:30;7.53;;;6.38;;
19414;SDS011;9843;48.882;12.592;2022-08-25T07:54:57;7.15;;;6.45;;
19414;SDS011;9843;48.882;12.592;2022-08-25T07:57:24;12.60;;;6.70;;
19414;SDS011;9843;48.882;12.592;2022-08-25T07:59:52;9.18;;;6.53;;
19414;SDS011;9843;48.882;12.592;2022-08-25T08:02:19;11.48;;;7.20;;
19414;SDS011;9843;48.882;12.592;2022-08-25T08:04:46;15.77;;;7.45;;
19414;SDS011;9843;48.882;12.592;2022-08-25T08:07:16;7.72;;;6.80;;
19414;SDS011;9843;48.882;12.592;2022-08-25T08:09:44;6.45;;;5.68;;
19414;SDS011;9843;48.882;12.592;2022-08-25T08:12:11;10.00;;;5.97;;
19414;SDS011;9843;48.882;12.592;2022-08-25T08:14:38;7.97;;;5.22;;
19414;SDS011;9843;48.882;12.592;2022-08-25T08:17:05;8.00;;;5.90;;
19414;SDS011;9843;48.882;12.592;2022-08-25T08:19:33;7.22;;;5.60;;
19414;SDS011;9843;48.882;12.592;2022-08-25T08:22:00;12.00;;;6.60;;
19414;SDS011;9843;48.882;12.592;2022-08-25T08:24:29;9.48;;;5.40;;
19414;SDS011;9843;48.882;12.592;2022-08-25T08:26:56;9.80;;;6.47;;
19414;SDS011;9843;48.882;12.592;2022-08-25T08:29:23;13.90;;;6.38;;
19414;SDS011;9843;48.882;12.592;2022-08-25T08:31:50;8.57;;;5.32;;
19414;SDS011;9843;48.882;12.592;2022-08-25T08:34:17;10.32;;;4.47;;
19414;SDS011;9843;48.882;12.592;2022-08-25T08:36:44;14.40;;;7.50;;
19414;SDS011;9843;48.882;12.592;2022-08-25T08:39:10;11.80;;;6.93;;
19414;SDS011;9843;48.882;12.592;2022-08-25T08:41:42;12.68;;;8.07;;
19414;SDS011;9843;48.882;12.592;2022-08-25T08:44:36;6.95;;;6.13;;
19414;SDS011;9843;48.882;12.592;2022-08-25T08:47:10;14.23;;;7.10;;
19414;SDS011;9843;48.882;12.592;2022-08-25T08:49:45;9.88;;;6.70;;
19414;SDS011;9843;48.882;12.592;2022-08-25T08:52:18;14.20;;;7.20;;
19414;SDS011;9843;48.882;12.592;2022-08-25T08:54:52;14.00;;;8.13;;
19414;SDS011;9843;48.882;12.592;2022-08-25T08:57:27;8.35;;;6.95;;
19414;SDS011;9843;48.882;12.592;2022-08-25T08:59:56;11.00;;;6.80;;
19414;SDS011;9843;48.882;12.592;2022-08-25T09:02:27;14.82;;;8.50;;
19414;SDS011;9843;48.882;12.592;2022-08-25T09:05:00;13.65;;;9.02;;
19414;SDS011;9843;48.882;12.592;2022-08-25T09:07:32;14.50;;;7.47;;
19414;SDS011;9843;48.882;12.592;2022-08-25T09:10:04;15.75;;;9.10;;
19414;SDS011;9843;48.882;12.592;2022-08-25T09:12:35;15.30;;;7.47;;
19414;SDS011;9843;48.882;12.592;2022-08-25T09:15:09;14.02;;;7.78;;
19414;SDS011;9843;48.882;12.592;2022-08-25T09:17:45;20.08;;;7.05;;
19414;SDS011;9843;48.882;12.592;2022-08-25T09:20:28;20.08;;;9.43;;
19414;SDS011;9843;48.882;12.592;2022-08-25T09:23:19;15.27;;;8.27;;
19414;SDS011;9843;48.882;12.592;2022-08-25T09:25:56;22.40;;;9.43;;
19414;SDS011;9843;48.882;12.592;2022-08-25T09:28:37;20.23;;;8.02;;
19414;SDS011;9843;48.882;12.592;2022-08-25T09:31:14;18.35;;;8.07;;
19414;SDS011;9843;48.882;12.592;2022-08-25T09:33:44;16.85;;;7.50;;
19414;SDS011;9843;48.882;12.592;2022-08-25T09:36:11;16.48;;;7.45;;
19414;SDS011;9843;48.882;12.592;2022-08-25T09:38:38;21.27;;;8.57;;
19414;SDS011;9843;48.882;12.592;2022-08-25T09:41:06;14.80;;;7.70;;
19414;SDS011;9843;48.882;12.592;2022-08-25T09:43:39;20.95;;;8.68;;
19414;SDS011;9843;48.882;12.592;2022-08-25T09:46:08;16.73;;;8.38;;
19414;SDS011;9843;48.882;12.592;2022-08-25T09:48:42;19.30;;;8.32;;
19414;SDS011;9843;48.882;12.592;2022-08-25T09:51:14;19.05;;;8.98;;
19414;SDS011;9843;48.882;12.592;2022-08-25T09:53:45;22.73;;;8.15;;
19414;SDS011;9843;48.882;12.592;2022-08-25T09:56:15;16.10;;;6.82;;
19414;SDS011;9843;48.882;12.592;2022-08-25T09:58:46;17.08;;;7.32;;
19414;SDS011;9843;48.882;12.592;2022-08-25T10:01:14;21.02;;;7.93;;
19414;SDS011;9843;48.882;12.592;2022-08-25T10:03:56;32.65;;;10.82;;
19414;SDS011;9843;48.882;12.592;2022-08-25T10:06:26;19.95;;;8.35;;
19414;SDS011;9843;48.882;12.592;2022-08-25T10:08:57;21.65;;;9.15;;
19414;SDS011;9843;48.882;12.592;2022-08-25T10:11:31;34.38;;;8.82;;
19414;SDS011;9843;48.882;12.592;2022-08-25T10:14:04;20.80;;;7.50;;
19414;SDS011;9843;48.882;12.592;2022-08-25T10:16:39;20.88;;;8.60;;
19414;SDS011;9843;48.882;12.592;2022-08-25T10:19:07;15.73;;;7.05;;
19414;SDS011;9843;48.882;12.592;2022-08-25T10:21:35;27.52;;;7.63;;
19414;SDS011;9843;48.882;12.592;2022-08-25T10:24:04;31.80;;;9.35;;
19414;SDS011;9843;48.882;12.592;2022-08-25T10:26:45;15.07;;;6.40;;
19414;SDS011;9843;48.882;12.592;2022-08-25T10:29:24;20.25;;;6.85;;
19414;SDS011;9843;48.882;12.592;2022-08-25T10:32:00;27.77;;;8.50;;
19414;SDS011;9843;48.882;12.592;2022-08-25T10:34:37;25.55;;;8.13;;
19414;SDS011;9843;48.882;12.592;2022-08-25T10:37:12;26.92;;;8.05;;
19414;SDS011;9843;48.882;12.592;2022-08-25T10:39:51;36.78;;;8.63;;
19414;SDS011;9843;48.882;12.592;2022-08-25T10:42:29;36.33;;;7.88;;
19414;SDS011;9843;48.882;12.592;2022-08-25T10:45:06;38.67;;;10.48;;
19414;SDS011;9843;48.882;12.592;2022-08-25T10:48:10;24.02;;;7.53;;
19414;SDS011;9843;48.882;12.592;2022-08-25T10:50:53;34.63;;;7.75;;
19414;SDS011;9843;48.882;12.592;2022-08-25T10:53:27;21.83;;;9.30;;
19414;SDS011;9843;48.882;12.592;2022-08-25T10:56:03;31.15;;;7.63;;
19414;SDS011;9843;48.882;12.592;2022-08-25T10:58:42;33.92;;;10.95;;
19414;SDS011;9843;48.882;12.592;2022-08-25T11:01:23;29.42;;;8.80;;
19414;SDS011;9843;48.882;12.592;2022-08-25T11:04:00;20.75;;;8.73;;
19414;SDS011;9843;48.882;12.592;2022-08-25T11:06:33;29.00;;;8.55;;
19414;SDS011;9843;48.882;12.592;2022-08-25T11:09:05;32.00;;;9.25;;
19414;SDS011;9843;48.882;12.592;2022-08-25T11:11:36;36.67;;;8.80;;
19414;SDS011;9843;48.882;12.592;2022-08-25T11:14:08;20.65;;;7.30;;
19414;SDS011;9843;48.882;12.592;2022-08-25T11:16:39;24.75;;;8.13;;
19414;SDS011;9843;48.882;12.592;2022-08-25T11:19:12;25.40;;;8.23;;
19414;SDS011;9843;48.882;12.592;2022-08-25T11:21:46;34.88;;;8.48;;
19414;SDS011;9843;48.882;12.592;2022-08-25T11:24:25;34.20;;;9.50;;
19414;SDS011;9843;48.882;12.592;2022-08-25T11:27:08;34.58;;;10.27;;
19414;SDS011;9843;48.882;12.592;2022-08-25T11:29:40;33.75;;;7.90;;
19414;SDS011;9843;48.882;12.592;2022-08-25T11:32:15;21.13;;;6.72;;
19414;SDS011;9843;48.882;12.592;2022-08-25T11:34:46;29.95;;;9.50;;
19414;SDS011;9843;48.882;12.592;2022-08-25T11:37:17;22.83;;;7.30;;
19414;SDS011;9843;48.882;12.592;2022-08-25T11:39:57;39.53;;;7.47;;
19414;SDS011;9843;48.882;12.592;2022-08-25T11:42:35;21.10;;;8.13;;
19414;SDS011;9843;48.882;12.592;2022-08-25T11:45:11;27.35;;;8.35;;
19414;SDS011;9843;48.882;12.592;2022-08-25T11:47:56;13.73;;;6.97;;
19414;SDS011;9843;48.882;12.592;2022-08-25T11:50:34;24.50;;;8.55;;
19414;SDS011;9843;48.882;12.592;2022-08-25T11:53:21;18.17;;;8.10;;
19414;SDS011;9843;48.882;12.592;2022-08-25T11:55:53;22.80;;;7.30;;
19414;SDS011;9843;48.882;12.592;2022-08-25T11:58:33;21.83;;;8.00;;
19414;SDS011;9843;48.882;12.592;2022-08-25T12:04:36;26.55;;;8.45;;
19414;SDS011;9843;48.882;12.592;2022-08-25T12:07:16;25.38;;;7.93;;
19414;SDS011;9843;48.882;12.592;2022-08-25T12:12:54;20.65;;;7.22;;
19414;SDS011;9843;48.882;12.592;2022-08-25T12:15:24;24.17;;;9.20;;
19414;SDS011;9843;48.882;12.592;2022-08-25T12:26:54;23.55;;;8.20;;
19414;SDS011;9843;48.882;12.592;2022-08-25T12:29:28;30.83;;;8.80;;
19414;SDS011;9843;48.882;12.592;2022-08-25T12:31:59;25.02;;;7.93;;
19414;SDS011;9843;48.882;12.592;2022-08-25T12:34:51;37.25;;;9.10;;
19414;SDS011;9843;48.882;12.592;2022-08-25T12:40:25;31.40;;;10.73;;
19414;SDS011;9843;48.882;12.592;2022-08-25T12:42:59;23.75;;;10.05;;
19414;SDS011;9843;48.882;12.592;2022-08-25T12:45:34;20.35;;;9.02;;
19414;SDS011;9843;48.882;12.592;2022-08-25T12:51:06;30.25;;;10.63;;
19414;SDS011;9843;48.882;12.592;2022-08-25T12:53:42;32.15;;;10.57;;
19414;SDS011;9843;48.882;12.592;2022-08-25T12:56:15;24.23;;;9.07;;
19414;SDS011;9843;48.882;12.592;2022-08-25T12:58:47;30.88;;;10.77;;
19414;SDS011;9843;48.882;12.592;2022-08-25T13:01:19;36.50;;;12.55;;
19414;SDS011;9843;48.882;12.592;2022-08-25T13:03:59;33.25;;;9.75;;
19414;SDS011;9843;48.882;12.592;2022-08-25T13:07:02;39.63;;;11.70;;
19414;SDS011;9843;48.882;12.592;2022-08-25T13:09:44;57.92;;;11.23;;
19414;SDS011;9843;48.882;12.592;2022-08-25T13:12:29;34.22;;;10.93;;
19414;SDS011;9843;48.882;12.592;2022-08-25T13:15:00;24.55;;;9.73;;
19414;SDS011;9843;48.882;12.592;2022-08-25T13:17:27;27.00;;;10.32;;
19414;SDS011;9843;48.882;12.592;2022-08-25T13:20:10;40.00;;;12.20;;
19414;SDS011;9843;48.882;12.592;2022-08-25T13:22:38;25.95;;;10.13;;
19414;SDS011;9843;48.882;12.592;2022-08-25T13:25:07;28.33;;;12.82;;
19414;SDS011;9843;48.882;12.592;2022-08-25T13:27:40;26.13;;;10.10;;
19414;SDS011;9843;48.882;12.592;2022-08-25T13:30:15;53.55;;;13.13;;
19414;SDS011;9843;48.882;12.592;2022-08-25T13:32:48;23.60;;;9.35;;
19414;SDS011;9843;48.882;12.592;2022-08-25T13:35:15;18.67;;;9.55;;
19414;SDS011;9843;48.882;12.592;2022-08-25T13:37:44;28.40;;;9.35;;
19414;SDS011;9843;48.882;12.592;2022-08-25T13:40:11;27.13;;;9.98;;
19414;SDS011;9843;48.882;12.592;2022-08-25T13:42:41;25.23;;;9.57;;
19414;SDS011;9843;48.882;12.592;2022-08-25T13:45:11;27.23;;;9.32;;
19414;SDS011;9843;48.882;12.592;2022-08-25T13:47:41;17.77;;;9.05;;
19414;SDS011;9843;48.882;12.592;2022-08-25T13:50:13;21.58;;;9.15;;
19414;SDS011;9843;48.882;12.592;2022-08-25T13:52:45;26.95;;;8.38;;
19414;SDS011;9843;48.882;12.592;2022-08-25T13:55:19;24.95;;;9.05;;
19414;SDS011;9843;48.882;12.592;2022-08-25T13:57:48;21.85;;;9.68;;
19414;SDS011;9843;48.882;12.592;2022-08-25T14:00:24;25.38;;;10.43;;
19414;SDS011;9843;48.882;12.592;2022-08-25T14:02:54;20.88;;;9.68;;
19414;SDS011;9843;48.882;12.592;2022-08-25T14:05:32;27.58;;;10.23;;
19414;SDS011;9843;48.882;12.592;2022-08-25T14:08:03;23.83;;;9.27;;
19414;SDS011;9843;48.882;12.592;2022-08-25T14:10:42;19.75;;;9.00;;
19414;SDS011;9843;48.882;12.592;2022-08-25T14:13:12;28.58;;;9.35;;
19414;SDS011;9843;48.882;12.592;2022-08-25T14:15:41;35.05;;;9.45;;
19414;SDS011;9843;48.882;12.592;2022-08-25T14:18:11;22.77;;;10.25;;
19414;SDS011;9843;48.882;12.592;2022-08-25T14:20:43;25.35;;;8.85;;
19414;SDS011;9843;48.882;12.592;2022-08-25T14:23:14;24.17;;;9.10;;
19414;SDS011;9843;48.882;12.592;2022-08-25T14:25:44;26.40;;;8.95;;
19414;SDS011;9843;48.882;12.592;2022-08-25T14:28:11;25.35;;;9.90;;
19414;SDS011;9843;48.882;12.592;2022-08-25T14:30:41;28.08;;;10.68;;
19414;SDS011;9843;48.882;12.592;2022-08-25T14:33:10;26.00;;;8.23;;
19414;SDS011;9843;48.882;12.592;2022-08-25T14:35:38;21.75;;;8.50;;
19414;SDS011;9843;48.882;12.592;2022-08-25T14:38:07;23.85;;;9.00;;
19414;SDS011;9843;48.882;12.592;2022-08-25T14:40:36;26.63;;;9.43;;
19414;SDS011;9843;48.882;12.592;2022-08-25T14:43:05;25.35;;;8.07;;
19414;SDS011;9843;48.882;12.592;2022-08-25T14:45:32;19.63;;;8.38;;
19414;SDS011;9843;48.882;12.592;2022-08-25T14:48:03;30.55;;;8.15;;
19414;SDS011;9843;48.882;12.592;2022-08-25T14:50:33;30.10;;;10.10;;
19414;SDS011;9843;48.882;12.592;2022-08-25T14:53:00;27.55;;;10.60;;
19414;SDS011;9843;48.882;12.592;2022-08-25T14:55:27;29.05;;;10.77;;
19414;SDS011;9843;48.882;12.592;2022-08-25T14:57:54;15.07;;;8.05;;
19414;SDS011;9843;48.882;12.592;2022-08-25T15:00:22;36.42;;;9.52;;
19414;SDS011;9843;48.882;12.592;2022-08-25T15:02:50;20.83;;;8.73;;
19414;SDS011;9843;48.882;12.592;2022-08-25T15:05:19;33.17;;;8.90;;
19414;SDS011;9843;48.882;12.592;2022-08-25T15:07:50;33.30;;;9.10;;